Time;durP1;ratioP1;P1;durP2;ratioP2;P2;SDS_P1;SDS_P2;PMS_P1;PMS_P2;Temp;Humidity;BMP_temperature;BMP_pressure;BME280_temperature;BME280_humidity;BME280_pressure;Samples;Min_cycle;Max_cycle;Signal;HPM_P1;HPM_P2
2022/12/28 09:58:21;;;;;;;10.05;7.22;;;21.70;34.10;;;;;;3849689;22;20053;-75
2022/12/28 10:00:56;;;;;;;15.20;7.55;;;21.80;34.10;;;;;;5033666;28;20140;-73
2022/12/28 10:03:35;;;;;;;10.07;6.90;;;21.80;33.90;;;;;;5039725;28;20069;-76
2022/12/28 10:06:08;;;;;;;12.70;7.80;;;21.80;33.80;;;;;;5050466;28;20045;-73
2022/12/28 10:08:41;;;;;;;12.30;7.18;;;21.80;33.60;;;;;;5042649;28;20053;-75
2022/12/28 10:11:12;;;;;;;9.98;6.60;;;21.90;33.50;;;;;;5049643;28;20065;-71
2022/12/28 10:13:39;;;;;;;9.85;6.03;;;21.90;33.30;;;;;;5049010;28;20506;-66
2022/12/28 10:16:24;;;;;;;15.55;6.95;;;21.90;33.20;;;;;;5057093;28;20064;-73
2022/12/28 10:18:52;;;;;;;8.98;6.18;;;21.90;33.00;;;;;;5046354;28;20049;-73
2022/12/28 10:21:22;;;;;;;10.52;5.70;;;21.90;32.90;;;;;;5049276;28;20049;-71
2022/12/28 10:23:58;;;;;;;7.63;5.38;;;21.90;32.80;;;;;;5052157;28;20055;-71
2022/12/28 10:26:46;;;;;;;10.77;5.47;;;21.90;32.70;;;;;;5046323;28;20385;-67
2022/12/28 10:29:18;;;;;;;5.65;4.90;;;21.90;32.60;;;;;;5062857;28;20075;-69
2022/12/28 10:32:05;;;;;;;8.25;5.13;;;21.90;32.50;;;;;;5050426;28;20049;-69
2022/12/28 10:34:35;;;;;;;13.60;5.00;;;22.00;32.50;;;;;;5045371;28;20053;-69
2022/12/28 10:37:16;;;;;;;9.32;4.93;;;22.00;32.40;;;;;;5046969;28;20041;-69
2022/12/28 10:39:57;;;;;;;11.23;5.00;;;22.00;32.30;;;;;;5047183;28;20128;-69
2022/12/28 10:42:29;;;;;;;8.70;4.70;;;22.00;32.20;;;;;;5053674;28;20052;-74
2022/12/28 10:45:02;;;;;;;6.85;4.35;;;22.00;32.40;;;;;;5037750;28;20140;-74
2022/12/28 10:47:39;;;;;;;6.30;4.20;;;22.00;32.70;;;;;;5041123;28;20080;-69
2022/12/28 10:50:30;;;;;;;6.00;4.15;;;22.10;32.80;;;;;;5059657;28;20415;-77
2022/12/28 10:53:04;;;;;;;7.25;4.80;;;22.10;32.60;;;;;;5042854;28;20041;-76
2022/12/28 10:55:33;;;;;;;6.78;4.13;;;22.10;32.70;;;;;;5056003;28;20426;-75
2022/12/28 10:58:21;;;;;;;6.57;3.70;;;22.10;32.80;;;;;;5055762;28;20152;-77
2022/12/28 11:01:26;;;;;;;5.43;3.95;;;22.10;32.80;;;;;;5059803;28;20049;-76
2022/12/28 11:04:02;;;;;;;5.22;3.83;;;22.10;32.80;;;;;;5069547;28;20059;-78
2022/12/28 11:06:35;;;;;;;9.65;4.30;;;22.10;32.80;;;;;;5069778;28;20404;-78
2022/12/28 11:09:21;;;;;;;5.07;3.50;;;22.20;32.90;;;;;;5069410;28;20055;-78
2022/12/28 11:11:51;;;;;;;4.63;3.35;;;22.20;32.80;;;;;;5075655;28;20080;-74
2022/12/28 11:14:30;;;;;;;5.53;3.63;;;22.20;32.60;;;;;;5075424;28;20083;-78
2022/12/28 11:17:06;;;;;;;4.53;3.53;;;22.20;32.60;;;;;;5060546;28;20364;-79
2022/12/28 11:19:33;;;;;;;7.60;3.70;;;22.20;32.60;;;;;;5074983;28;20849;-75
2022/12/28 11:22:01;;;;;;;6.28;3.10;;;22.20;32.50;;;;;;5073240;28;20084;-72
2022/12/28 11:24:28;;;;;;;5.47;3.20;;;22.30;32.30;;;;;;5074267;28;20128;-68
2022/12/28 11:27:02;;;;;;;5.10;3.20;;;22.30;32.20;;;;;;5068296;28;20049;-74
2022/12/28 11:29:29;;;;;;;6.55;3.15;;;22.30;32.10;;;;;;5075279;28;20071;-75
2022/12/28 11:32:11;;;;;;;6.20;2.88;;;22.30;32.00;;;;;;5057041;28;20441;-74
2022/12/28 11:34:39;;;;;;;4.50;3.13;;;22.30;31.90;;;;;;5075011;28;20415;-75
2022/12/28 11:37:12;;;;;;;4.35;3.00;;;22.30;31.80;;;;;;5075562;28;20041;-74
2022/12/28 11:39:47;;;;;;;4.95;2.90;;;22.40;31.80;;;;;;5074633;28;20049;-74
2022/12/28 11:42:54;;;;;;;5.25;2.65;;;22.40;31.80;;;;;;5074249;28;20055;-74
2022/12/28 11:45:51;;;;;;;4.28;2.75;;;22.30;31.70;;;;;;5075051;28;20055;-74
2022/12/28 11:48:59;;;;;;;4.22;2.83;;;22.30;31.50;;;;;;5068495;28;20098;-74
2022/12/28 11:51:36;;;;;;;3.72;2.40;;;22.30;31.50;;;;;;5060115;28;20040;-74
2022/12/28 11:54:11;;;;;;;3.30;2.45;;;22.30;31.50;;;;;;5081469;28;20121;-69
2022/12/28 11:56:57;;;;;;;4.13;2.78;;;22.40;31.60;;;;;;5064949;28;20480;-70
2022/12/28 11:59:27;;;;;;;3.95;2.97;;;22.30;31.50;;;;;;5054709;28;20048;-69
2022/12/28 12:02:21;;;;;;;4.30;3.33;;;22.30;31.50;;;;;;5055115;28;20040;-69
2022/12/28 12:04:49;;;;;;;3.33;2.58;;;22.30;31.50;;;;;;5039943;28;20045;-69
2022/12/28 12:07:22;;;;;;;4.53;3.22;;;22.30;31.40;;;;;;5055023;28;20072;-69
2022/12/28 12:10:26;;;;;;;2.78;2.13;;;22.40;31.50;;;;;;5054593;28;20541;-69
2022/12/28 12:12:53;;;;;;;4.45;2.65;;;22.40;32.00;;;;;;5054466;28;20450;-69
2022/12/28 12:15:32;;;;;;;3.90;2.85;;;22.30;31.40;;;;;;5054409;28;20128;-69
2022/12/28 12:18:05;;;;;;;2.83;2.45;;;22.30;31.30;;;;;;5054491;28;20084;-69
2022/12/28 12:20:51;;;;;;;6.63;2.33;;;22.30;31.30;;;;;;5054699;28;20060;-69
2022/12/28 12:23:39;;;;;;;3.13;2.35;;;22.40;31.30;;;;;;5054334;28;20048;-69
2022/12/28 12:26:28;;;;;;;2.67;2.17;;;22.40;31.20;;;;;;5054266;28;20056;-69
2022/12/28 12:29:02;;;;;;;3.83;2.65;;;22.40;31.20;;;;;;5054521;28;20397;-69
2022/12/28 12:31:36;;;;;;;2.88;1.90;;;22.40;31.20;;;;;;5054502;28;20408;-69
2022/12/28 12:34:14;;;;;;;3.13;2.22;;;22.40;31.10;;;;;;5054049;28;20136;-69
2022/12/28 12:37:24;;;;;;;3.97;2.20;;;22.40;31.10;;;;;;5054192;28;20081;-69
2022/12/28 12:40:16;;;;;;;4.25;2.35;;;22.40;31.00;;;;;;5054059;28;20080;-69
2022/12/28 12:43:13;;;;;;;1.98;1.55;;;22.40;31.00;;;;;;5053995;28;20049;-69
2022/12/28 12:46:11;;;;;;;4.32;2.40;;;22.40;31.00;;;;;;5053993;28;20131;-70
2022/12/28 12:49:01;;;;;;;2.35;1.73;;;22.50;31.00;;;;;;5040751;28;20049;-69
2022/12/28 12:51:49;;;;;;;3.38;2.08;;;22.40;31.00;;;;;;5035975;28;20045;-70
2022/12/28 12:54:44;;;;;;;3.35;2.13;;;22.40;31.00;;;;;;5054123;28;20132;-69
2022/12/28 12:57:18;;;;;;;3.38;2.03;;;22.40;30.90;;;;;;5053936;28;20463;-69
2022/12/28 13:00:10;;;;;;;2.30;1.98;;;22.40;30.90;;;;;;5068133;28;20478;-69
2022/12/28 13:03:07;;;;;;;3.45;2.05;;;22.40;30.90;;;;;;5073585;28;20048;-69
2022/12/28 13:05:39;;;;;;;4.03;2.33;;;22.40;30.80;;;;;;5069835;28;20451;-69
2022/12/28 13:08:13;;;;;;;2.80;1.85;;;22.40;30.80;;;;;;5064798;28;20049;-69
2022/12/28 13:10:44;;;;;;;3.42;1.77;;;22.40;30.80;;;;;;5083787;28;20492;-69
2022/12/28 13:13:24;;;;;;;3.17;2.25;;;22.40;30.80;;;;;;5073222;28;20053;-69
2022/12/28 13:15:52;;;;;;;;;;;22.40;30.90;;;;;;5072874;28;20127;-70
2022/12/28 13:18:20;;;;;;;2.95;2.15;;;22.40;30.80;;;;;;5073296;28;19927;-69
2022/12/28 13:21:16;;;;;;;2.15;1.63;;;22.40;30.80;;;;;;5072362;28;20052;-69
2022/12/28 13:23:44;;;;;;;4.88;2.40;;;22.40;30.80;;;;;;5073419;28;20477;-70
2022/12/28 13:26:14;;;;;;;2.65;1.92;;;22.40;30.80;;;;;;5073279;28;20040;-69
2022/12/28 13:29:06;;;;;;;2.25;2.03;;;22.40;30.80;;;;;;5073046;28;20131;-69
2022/12/28 13:31:40;;;;;;;3.47;1.88;;;22.50;30.80;;;;;;5073535;28;20040;-70
2022/12/28 13:34:21;;;;;;;2.72;1.88;;;22.40;30.80;;;;;;5073096;28;20087;-69
2022/12/28 13:36:55;;;;;;;2.15;1.90;;;22.50;30.80;;;;;;5073235;28;20050;-69
2022/12/28 13:39:24;;;;;;;2.65;2.10;;;22.50;30.80;;;;;;5073135;28;20052;-69
2022/12/28 13:42:02;;;;;;;3.25;2.17;;;22.40;30.70;;;;;;5073072;28;20055;-69
2022/12/28 13:44:58;;;;;;;2.80;1.95;;;22.50;30.70;;;;;;5073091;28;20578;-69
2022/12/28 13:47:37;;;;;;;4.53;2.50;;;22.50;30.70;;;;;;5072497;28;20139;-69
2022/12/28 13:50:23;;;;;;;4.28;2.30;;;22.50;30.70;;;;;;5073251;28;20400;-69
2022/12/28 13:53:04;;;;;;;3.58;2.35;;;22.50;30.70;;;;;;5073074;28;20092;-70
2022/12/28 13:55:39;;;;;;;3.42;2.22;;;22.40;30.70;;;;;;5072984;28;20051;-69
2022/12/28 13:58:19;;;;;;;3.17;2.25;;;22.40;30.60;;;;;;5071926;28;20131;-69
2022/12/28 14:00:48;;;;;;;4.22;2.55;;;22.50;30.70;;;;;;5073030;28;20047;-70
2022/12/28 14:03:17;;;;;;;1.67;1.58;;;22.40;30.60;;;;;;5073004;28;20044;-69
2022/12/28 14:05:48;;;;;;;2.67;1.88;;;22.40;30.60;;;;;;5071860;28;20079;-70
2022/12/28 14:08:16;;;;;;;3.78;2.25;;;22.40;30.50;;;;;;5073056;28;20053;-70
2022/12/28 14:10:45;;;;;;;2.38;2.15;;;22.40;30.60;;;;;;5072901;28;20135;-70
2022/12/28 14:13:13;;;;;;;3.60;2.13;;;22.40;30.60;;;;;;5071866;28;20078;-69
2022/12/28 14:15:41;;;;;;;3.15;2.10;;;22.40;30.60;;;;;;5073061;28;20579;-70
2022/12/28 14:18:12;;;;;;;2.75;1.92;;;22.40;30.50;;;;;;5070923;28;20113;-69
2022/12/28 14:20:51;;;;;;;2.22;1.42;;;22.40;30.50;;;;;;5076729;28;20503;-69
2022/12/28 14:23:25;;;;;;;2.08;1.70;;;22.40;30.50;;;;;;5076544;28;20083;-69
2022/12/28 14:25:54;;;;;;;3.15;1.85;;;22.30;30.40;;;;;;5075775;28;20396;-69
2022/12/28 14:28:38;;;;;;;2.28;1.65;;;22.40;30.50;;;;;;5076403;28;20053;-69
2022/12/28 14:31:07;;;;;;;2.05;1.58;;;22.30;30.40;;;;;;5076738;28;20139;-69
2022/12/28 14:33:47;;;;;;;3.28;2.00;;;22.30;30.30;;;;;;5076367;28;20052;-69
2022/12/28 14:36:28;;;;;;;2.08;1.77;;;22.30;30.40;;;;;;5075882;28;20084;-69
2022/12/28 14:38:58;;;;;;;2.08;1.85;;;22.30;30.40;;;;;;5076117;28;20504;-69
2022/12/28 14:41:39;;;;;;;3.25;2.10;;;22.30;30.40;;;;;;5076522;28;20420;-69
2022/12/28 14:44:16;;;;;;;2.10;1.67;;;22.30;30.40;;;;;;5076057;28;20053;-69
2022/12/28 14:46:43;;;;;;;2.90;2.20;;;22.30;30.30;;;;;;5075128;28;20044;-70
2022/12/28 14:49:31;;;;;;;2.90;1.98;;;22.30;30.30;;;;;;5075500;28;20095;-69
2022/12/28 14:52:38;;;;;;;3.58;2.63;;;22.30;30.30;;;;;;5076109;28;20131;-69
2022/12/28 14:55:21;;;;;;;4.07;2.95;;;22.20;30.20;;;;;;5075317;28;20040;-69
2022/12/28 14:58:01;;;;;;;4.53;3.42;;;22.20;30.30;;;;;;5074735;28;20492;-70
2022/12/28 15:00:30;;;;;;;;;;;22.20;30.30;;;;;;5076468;28;20048;-69
2022/12/28 15:03:13;;;;;;;7.05;4.25;;;22.20;30.30;;;;;;5075849;28;19926;-69
2022/12/28 15:05:50;;;;;;;4.78;3.10;;;22.10;30.30;;;;;;5076172;28;20094;-69
2022/12/28 15:08:17;;;;;;;4.55;3.10;;;22.10;30.60;;;;;;5058944;28;20149;-69
2022/12/28 15:10:51;;;;;;;4.25;3.00;;;22.10;30.70;;;;;;5075260;28;20044;-69
2022/12/28 15:13:20;;;;;;;4.50;3.13;;;22.10;30.80;;;;;;5075733;28;20105;-69
2022/12/28 15:15:59;;;;;;;4.82;3.15;;;22.10;30.90;;;;;;5075714;28;20049;-70
2022/12/28 15:18:29;;;;;;;4.57;3.38;;;22.00;30.90;;;;;;5075608;28;20450;-69
2022/12/28 15:21:01;;;;;;;6.47;3.28;;;22.00;31.00;;;;;;5075960;28;20060;-69
2022/12/28 15:23:29;;;;;;;4.65;3.28;;;21.90;31.00;;;;;;5075723;28;20122;-69
2022/12/28 15:25:56;;;;;;;3.35;2.85;;;21.90;31.10;;;;;;5074528;28;20083;-69
2022/12/28 15:28:26;;;;;;;4.50;3.10;;;21.90;31.20;;;;;;5075437;28;20080;-69
2022/12/28 15:30:53;;;;;;;4.95;3.35;;;21.80;31.30;;;;;;5075666;28;20050;-69
2022/12/28 15:33:20;;;;;;;3.65;2.85;;;21.80;31.40;;;;;;5075628;28;20048;-69
2022/12/28 15:35:47;;;;;;;4.82;3.67;;;21.80;31.50;;;;;;5075766;28;20124;-69
2022/12/28 15:38:14;;;;;;;4.78;3.42;;;21.70;31.50;;;;;;5075531;28;20049;-69
2022/12/28 15:40:41;;;;;;;4.85;3.30;;;21.70;31.60;;;;;;5074241;28;20052;-69
2022/12/28 15:43:08;;;;;;;5.07;3.35;;;21.60;31.70;;;;;;5075149;28;20051;-69
2022/12/28 15:45:35;;;;;;;5.28;3.00;;;21.60;31.80;;;;;;5075184;28;20055;-69
2022/12/28 15:48:03;;;;;;;5.82;4.13;;;21.60;31.90;;;;;;5075085;28;20051;-69
2022/12/28 15:50:31;;;;;;;4.18;3.10;;;21.50;31.90;;;;;;5074938;28;20053;-69
2022/12/28 15:52:58;;;;;;;5.88;3.85;;;21.50;32.00;;;;;;5075063;28;20484;-69
2022/12/28 15:55:26;;;;;;;4.97;3.47;;;21.40;32.00;;;;;;5074854;28;20135;-69
2022/12/28 15:57:53;;;;;;;5.53;3.92;;;21.40;32.10;;;;;;5075078;28;20162;-69
2022/12/28 16:00:20;;;;;;;4.97;3.45;;;21.40;32.20;;;;;;5074806;28;20135;-69
2022/12/28 16:02:47;;;;;;;4.10;3.42;;;21.40;32.30;;;;;;5075025;28;20137;-69
2022/12/28 16:05:14;;;;;;;4.75;3.30;;;21.30;32.30;;;;;;5074729;28;20045;-69
2022/12/28 16:07:42;;;;;;;5.80;3.50;;;21.30;32.40;;;;;;5074964;28;20048;-69
2022/12/28 16:10:09;;;;;;;4.88;3.35;;;21.30;32.50;;;;;;5073755;28;20044;-69
2022/12/28 16:12:36;;;;;;;5.03;2.88;;;21.20;32.50;;;;;;5074700;28;20046;-69
2022/12/28 16:15:03;;;;;;;4.40;3.65;;;21.20;32.60;;;;;;5073442;28;20128;-69
2022/12/28 16:17:31;;;;;;;5.15;3.17;;;21.10;32.60;;;;;;5074589;28;20054;-69
2022/12/28 16:19:58;;;;;;;5.05;3.53;;;21.10;32.70;;;;;;5074391;28;20131;-70
2022/12/28 16:22:25;;;;;;;5.35;3.50;;;21.10;32.80;;;;;;5074341;28;20098;-69
2022/12/28 16:24:52;;;;;;;4.10;3.40;;;21.10;32.90;;;;;;5074334;28;20099;-69
2022/12/28 16:27:19;;;;;;;7.13;3.50;;;21.00;32.90;;;;;;5074353;28;20050;-70
2022/12/28 16:29:47;;;;;;;4.60;3.00;;;21.00;33.00;;;;;;5074100;28;20135;-69
2022/12/28 16:32:21;;;;;;;5.00;3.20;;;21.00;33.00;;;;;;5074285;28;20051;-68
2022/12/28 16:34:48;;;;;;;4.78;3.28;;;21.00;33.10;;;;;;5073520;28;20500;-69
2022/12/28 16:37:15;;;;;;;4.38;3.15;;;20.90;33.10;;;;;;5073296;28;20048;-69
2022/12/28 16:39:43;;;;;;;4.18;3.35;;;20.90;33.10;;;;;;5073783;28;20109;-69
2022/12/28 16:42:10;;;;;;;4.93;3.65;;;20.90;33.20;;;;;;5073852;28;20052;-69
2022/12/28 16:44:38;;;;;;;3.83;3.10;;;20.90;33.30;;;;;;5074208;28;20048;-68
2022/12/28 16:47:06;;;;;;;4.63;3.67;;;20.90;33.30;;;;;;5072714;28;20136;-69
2022/12/28 16:49:37;;;;;;;6.32;3.60;;;20.90;33.30;;;;;;5073956;28;20139;-69
2022/12/28 16:52:04;;;;;;;4.07;3.17;;;20.80;33.40;;;;;;5072985;28;20053;-70
2022/12/28 16:54:31;;;;;;;5.22;3.65;;;20.80;33.40;;;;;;5052448;28;20135;-69
2022/12/28 16:56:58;;;;;;;4.05;3.10;;;20.80;33.40;;;;;;5053797;28;20132;-69
2022/12/28 16:59:27;;;;;;;4.97;3.63;;;20.80;33.50;;;;;;5053332;28;20053;-68
2022/12/28 17:01:55;;;;;;;4.88;3.42;;;20.80;33.50;;;;;;5053670;28;20099;-69
2022/12/28 17:04:23;;;;;;;4.85;3.33;;;20.80;33.50;;;;;;5053556;28;20049;-69
2022/12/28 17:06:51;;;;;;;4.32;3.50;;;20.80;33.60;;;;;;5053576;28;20049;-69
2022/12/28 17:09:19;;;;;;;5.10;3.65;;;20.80;33.60;;;;;;5053758;28;20053;-69
2022/12/28 17:11:48;;;;;;;4.65;3.42;;;20.70;33.60;;;;;;5053832;28;20056;-69
2022/12/28 17:14:16;;;;;;;4.53;3.03;;;20.80;33.70;;;;;;5053406;28;20127;-69
2022/12/28 17:17:01;;;;;;;4.53;2.90;;;20.70;33.70;;;;;;5053831;28;20132;-68
2022/12/28 17:19:29;;;;;;;3.08;2.83;;;20.70;33.70;;;;;;5053680;28;20084;-69
2022/12/28 17:21:56;;;;;;;5.75;3.38;;;20.70;33.70;;;;;;5053610;28;20133;-68
2022/12/28 17:24:23;;;;;;;4.85;3.20;;;20.70;33.80;;;;;;5053209;28;20052;-69
2022/12/28 17:26:50;;;;;;;4.80;3.20;;;20.70;33.90;;;;;;5053415;28;20124;-69
2022/12/28 17:29:17;;;;;;;5.50;3.92;;;20.60;33.90;;;;;;5052603;28;20131;-69
2022/12/28 17:31:44;;;;;;;5.90;3.72;;;20.60;33.90;;;;;;5019510;28;20045;-69
2022/12/28 17:34:11;;;;;;;4.13;3.25;;;20.60;34.00;;;;;;5053467;28;20416;-70
2022/12/28 17:36:38;;;;;;;5.72;3.85;;;20.60;34.00;;;;;;5052941;28;20088;-69
2022/12/28 17:39:05;;;;;;;3.88;2.90;;;20.60;34.10;;;;;;5053053;28;20055;-69
2022/12/28 17:41:32;;;;;;;4.40;3.03;;;20.60;34.10;;;;;;5053050;28;20469;-69
2022/12/28 17:44:00;;;;;;;4.72;3.47;;;20.60;34.20;;;;;;5053186;28;20076;-70
2022/12/28 17:46:29;;;;;;;4.60;3.22;;;20.60;34.20;;;;;;5053431;28;20119;-69
2022/12/28 17:48:58;;;;;;;4.88;3.78;;;20.50;34.20;;;;;;5052912;28;20511;-69
2022/12/28 17:51:27;;;;;;;5.70;3.47;;;20.50;34.20;;;;;;5052919;28;20132;-69
2022/12/28 17:53:55;;;;;;;4.53;3.10;;;20.50;34.30;;;;;;5036998;28;20048;-69
2022/12/28 17:56:22;;;;;;;4.75;3.78;;;20.50;34.30;;;;;;5039392;28;20045;-69
2022/12/28 17:58:55;;;;;;;3.70;3.00;;;20.50;34.40;;;;;;5056794;28;20052;-69
2022/12/28 18:01:22;;;;;;;5.85;3.50;;;20.50;34.40;;;;;;5057401;28;20076;-70
2022/12/28 18:03:50;;;;;;;5.15;3.45;;;20.40;34.40;;;;;;5056221;28;20504;-69
2022/12/28 18:06:17;;;;;;;4.05;3.30;;;20.40;34.40;;;;;;5057025;28;20098;-69
2022/12/28 18:08:44;;;;;;;6.10;3.50;;;20.40;34.50;;;;;;5056936;28;20045;-69
2022/12/28 18:11:11;;;;;;;4.38;3.33;;;20.40;34.50;;;;;;5039099;28;20052;-69
2022/12/28 18:13:40;;;;;;;3.83;3.25;;;20.40;34.60;;;;;;5057118;28;20397;-69
2022/12/28 18:16:10;;;;;;;4.53;3.55;;;20.30;34.60;;;;;;5056806;28;20049;-69
2022/12/28 18:18:37;;;;;;;4.70;3.50;;;20.40;34.60;;;;;;5057007;28;20067;-69
2022/12/28 18:21:13;;;;;;;4.47;3.40;;;20.30;34.60;;;;;;5056148;28;20092;-69
2022/12/28 18:23:49;;;;;;;3.67;3.33;;;20.30;34.70;;;;;;5056241;28;20124;-69
2022/12/28 18:26:20;;;;;;;3.53;2.77;;;20.30;34.70;;;;;;5056863;28;20045;-69
2022/12/28 18:28:49;;;;;;;4.82;3.30;;;20.30;34.80;;;;;;5056774;28;20044;-69
2022/12/28 18:31:17;;;;;;;5.30;3.42;;;20.30;34.80;;;;;;5038935;28;20084;-69
2022/12/28 18:33:44;;;;;;;5.35;3.75;;;20.30;34.80;;;;;;5056683;28;20057;-69
2022/12/28 18:36:12;;;;;;;3.95;3.28;;;20.30;34.90;;;;;;5056239;28;20041;-68
2022/12/28 18:38:44;;;;;;;5.47;3.47;;;20.30;34.90;;;;;;5056605;28;20071;-69
2022/12/28 18:41:13;;;;;;;3.38;2.65;;;20.30;34.90;;;;;;5056315;28;20123;-68
2022/12/28 18:43:41;;;;;;;5.18;3.58;;;20.20;34.90;;;;;;5055679;28;20128;-69
2022/12/28 18:46:09;;;;;;;3.50;3.13;;;20.20;34.90;;;;;;5038610;28;20056;-68
2022/12/28 18:48:38;;;;;;;5.88;3.40;;;20.20;35.00;;;;;;5056482;28;20060;-69
2022/12/28 18:51:17;;;;;;;4.68;3.30;;;20.20;35.00;;;;;;5056298;28;20455;-69
2022/12/28 18:53:44;;;;;;;3.75;3.33;;;20.20;35.00;;;;;;5056386;28;20135;-68
2022/12/28 18:56:14;;;;;;;4.68;3.38;;;20.20;35.00;;;;;;5075537;28;20044;-68
2022/12/28 18:58:42;;;;;;;5.25;3.83;;;20.20;35.10;;;;;;5075542;28;20059;-68
2022/12/28 19:01:13;;;;;;;4.88;3.50;;;20.20;35.10;;;;;;5076339;28;20102;-68
2022/12/28 19:04:00;;;;;;;5.38;3.55;;;20.20;35.10;;;;;;5075660;28;20515;-69
2022/12/28 19:06:31;;;;;;;4.22;3.33;;;20.10;35.10;;;;;;5076002;28;20045;-69
2022/12/28 19:09:00;;;;;;;4.90;3.78;;;20.20;35.20;;;;;;5076146;28;20449;-68
2022/12/28 19:11:27;;;;;;;4.75;3.75;;;20.10;35.20;;;;;;5075818;28;20050;-69
2022/12/28 19:13:55;;;;;;;5.88;3.28;;;20.10;35.20;;;;;;5075609;28;20040;-68
2022/12/28 19:16:22;;;;;;;4.20;3.40;;;20.10;35.20;;;;;;5073065;28;20495;-68
2022/12/28 19:18:57;;;;;;;4.00;3.45;;;20.10;35.20;;;;;;5072810;28;20131;-68
2022/12/28 19:21:30;;;;;;;5.03;3.58;;;20.10;35.30;;;;;;5075630;28;20087;-68
2022/12/28 19:24:02;;;;;;;3.92;3.40;;;20.10;35.30;;;;;;5075348;28;20072;-69
2022/12/28 19:26:30;;;;;;;5.32;3.67;;;20.10;35.30;;;;;;5075625;28;20478;-70
2022/12/28 19:28:58;;;;;;;4.30;3.67;;;20.10;35.30;;;;;;5075465;28;20127;-68
2022/12/28 19:31:25;;;;;;;6.07;4.15;;;20.10;35.40;;;;;;5075190;28;20044;-68
2022/12/28 19:33:53;;;;;;;4.50;3.35;;;20.10;35.40;;;;;;5075331;28;20056;-69
2022/12/28 19:36:20;;;;;;;5.13;3.55;;;20.10;35.40;;;;;;5075436;28;20122;-68
2022/12/28 19:38:47;;;;;;;4.82;3.70;;;20.00;35.40;;;;;;5057499;28;20135;-68
2022/12/28 19:41:15;;;;;;;5.45;4.00;;;20.00;35.40;;;;;;5057874;28;20047;-68
2022/12/28 19:43:43;;;;;;;5.07;3.58;;;20.00;35.40;;;;;;5075200;28;20056;-69
2022/12/28 19:46:16;;;;;;;7.90;3.97;;;20.00;35.50;;;;;;5075396;28;20129;-68
2022/12/28 19:48:44;;;;;;;4.68;3.85;;;20.00;35.50;;;;;;5057663;28;20403;-69
2022/12/28 19:51:12;;;;;;;5.65;4.28;;;20.00;35.50;;;;;;5075332;28;20154;-69
2022/12/28 19:53:39;;;;;;;5.88;4.07;;;20.00;35.50;;;;;;5074879;28;20079;-68
2022/12/28 19:56:12;;;;;;;3.95;3.38;;;20.00;35.50;;;;;;5075013;28;20118;-68
2022/12/28 19:58:42;;;;;;;4.88;3.85;;;20.00;35.60;;;;;;5074676;28;20136;-69
2022/12/28 20:01:19;;;;;;;5.38;4.18;;;20.00;35.60;;;;;;5074752;28;20044;-69
2022/12/28 20:03:47;;;;;;;5.72;4.38;;;20.00;35.60;;;;;;5056997;28;20048;-69
2022/12/28 20:06:25;;;;;;;5.72;4.18;;;19.90;35.60;;;;;;5074832;28;20075;-69
2022/12/28 20:08:58;;;;;;;5.00;3.83;;;19.90;35.60;;;;;;5074556;28;20052;-69
2022/12/28 20:11:26;;;;;;;9.25;4.55;;;19.90;35.60;;;;;;5074950;28;20053;-68
2022/12/28 20:13:57;;;;;;;5.93;4.00;;;19.90;35.60;;;;;;5074824;28;20135;-69
2022/12/28 20:16:26;;;;;;;5.90;4.32;;;19.90;35.70;;;;;;5055292;28;20037;-69
2022/12/28 20:18:54;;;;;;;5.90;4.47;;;19.90;35.70;;;;;;5073939;28;20060;-69
2022/12/28 20:21:23;;;;;;;5.65;4.10;;;19.90;35.70;;;;;;5074486;28;20484;-69
2022/12/28 20:23:52;;;;;;;5.15;3.97;;;19.90;35.70;;;;;;5073778;28;20503;-69
2022/12/28 20:26:20;;;;;;;6.95;5.15;;;19.90;35.70;;;;;;5073805;28;20139;-69
2022/12/28 20:28:49;;;;;;;5.25;4.38;;;19.90;35.80;;;;;;5074246;28;20048;-68
2022/12/28 20:31:16;;;;;;;5.82;4.15;;;19.90;35.70;;;;;;5074177;28;20052;-68
2022/12/28 20:33:44;;;;;;;6.38;4.93;;;19.90;35.80;;;;;;5074078;28;20049;-68
2022/12/28 20:36:18;;;;;;;5.93;4.60;;;19.90;35.80;;;;;;5074238;28;20132;-68
2022/12/28 20:38:46;;;;;;;6.82;4.82;;;19.90;35.80;;;;;;5074021;28;20522;-68
2022/12/28 20:44:08;;;;;;;7.05;4.40;;;19.80;35.80;;;;;;5074144;28;20078;-68
2022/12/28 20:46:35;;;;;;;6.38;4.97;;;19.80;35.80;;;;;;5074262;28;20126;-68
2022/12/28 20:49:03;;;;;;;6.88;4.93;;;19.80;35.90;;;;;;5072975;28;20470;-68
2022/12/28 20:51:31;;;;;;;7.78;5.20;;;19.80;35.90;;;;;;5073952;28;20055;-68
2022/12/28 20:53:58;;;;;;;5.35;4.40;;;19.80;35.90;;;;;;5073838;28;20159;-68
2022/12/28 20:56:26;;;;;;;8.32;5.35;;;19.80;35.90;;;;;;5073728;28;20563;-69
2022/12/28 20:58:53;;;;;;;7.35;5.18;;;19.80;36.00;;;;;;5073583;28;20051;-69
2022/12/28 21:01:20;;;;;;;7.65;5.28;;;19.80;36.00;;;;;;5073446;28;20407;-68
2022/12/28 21:03:47;;;;;;;7.15;5.50;;;19.80;36.00;;;;;;5073484;28;20089;-69
2022/12/28 21:06:16;;;;;;;6.60;4.93;;;19.80;36.00;;;;;;5073786;28;20076;-68
2022/12/28 21:08:43;;;;;;;6.15;5.03;;;19.80;36.00;;;;;;5072902;28;20502;-68
2022/12/28 21:11:10;;;;;;;8.85;5.88;;;19.70;36.00;;;;;;5073299;28;20128;-68
2022/12/28 21:13:37;;;;;;;8.32;5.80;;;19.80;36.10;;;;;;5073433;28;20051;-68
2022/12/28 21:16:11;;;;;;;7.80;5.30;;;19.80;36.10;;;;;;5073772;28;20052;-68
2022/12/28 21:18:38;;;;;;;7.47;5.05;;;19.80;36.10;;;;;;5073453;28;20048;-68
2022/12/28 21:21:11;;;;;;;7.97;5.45;;;19.80;36.10;;;;;;5073769;28;20044;-69
2022/12/28 21:23:38;;;;;;;6.95;5.45;;;19.70;36.10;;;;;;5073224;28;20131;-68
2022/12/28 21:26:09;;;;;;;7.57;5.35;;;19.70;36.10;;;;;;5073173;28;20055;-69
2022/12/28 21:28:36;;;;;;;8.30;5.88;;;19.70;36.10;;;;;;5055174;28;20444;-68
2022/12/28 21:31:05;;;;;;;8.18;5.22;;;19.70;36.10;;;;;;5072684;28;20052;-68
2022/12/28 21:33:32;;;;;;;8.02;5.70;;;19.70;36.10;;;;;;5073473;28;20467;-68
2022/12/28 21:36:05;;;;;;;11.10;6.55;;;19.70;36.10;;;;;;5073042;28;20055;-68
2022/12/28 21:38:35;;;;;;;8.52;5.82;;;19.70;36.10;;;;;;5056080;28;20131;-68
2022/12/28 21:41:08;;;;;;;8.38;5.75;;;19.70;36.10;;;;;;5055145;28;20049;-69
2022/12/28 21:43:35;;;;;;;7.78;5.82;;;19.70;36.10;;;;;;5073118;28;20483;-68
2022/12/28 21:46:15;;;;;;;8.18;6.10;;;19.70;36.10;;;;;;5071679;28;20132;-69
2022/12/28 21:48:42;;;;;;;7.30;6.00;;;19.80;36.20;;;;;;5073017;28;20045;-69
2022/12/28 21:54:01;;;;;;;;;;;19.70;36.20;;;;;;5072843;28;20050;-68
2022/12/28 21:56:29;;;;;;;8.75;6.03;;;19.70;36.20;;;;;;5072383;28;19927;-68
2022/12/28 21:58:59;;;;;;;9.05;6.43;;;19.70;36.20;;;;;;5072877;28;20058;-68
2022/12/28 22:07:04;;;;;;;8.55;5.95;;;19.70;36.20;;;;;;5058451;28;20079;-69
2022/12/28 22:12:35;;;;;;;8.70;5.85;;;19.60;36.80;;;;;;5072378;28;20041;-68
2022/12/28 22:18:07;;;;;;;8.57;6.00;;;19.70;36.30;;;;;;5072814;28;20048;-68
2022/12/28 22:20:36;;;;;;;8.38;6.55;;;19.70;36.30;;;;;;5071701;28;20082;-69
2022/12/28 22:23:03;;;;;;;8.50;6.20;;;19.70;36.30;;;;;;5054925;28;20127;-69
2022/12/28 22:25:31;;;;;;;10.27;6.57;;;19.70;36.30;;;;;;5073085;28;20123;-69
2022/12/28 22:27:59;;;;;;;9.13;6.68;;;19.60;36.30;;;;;;5072759;28;20106;-69
2022/12/28 22:30:27;;;;;;;7.55;5.80;;;19.60;36.30;;;;;;5072694;28;20048;-69
2022/12/28 22:32:54;;;;;;;7.78;5.57;;;19.60;36.30;;;;;;5072796;28;20563;-69
2022/12/28 22:35:22;;;;;;;8.73;6.68;;;19.60;36.30;;;;;;5072084;28;20048;-68
2022/12/28 22:37:49;;;;;;;9.23;6.65;;;19.60;36.30;;;;;;5072132;28;20055;-68
2022/12/28 22:40:17;;;;;;;9.85;6.85;;;19.60;36.30;;;;;;5073660;28;20044;-69
2022/12/28 22:42:47;;;;;;;9.75;7.00;;;19.60;36.40;;;;;;5076053;28;20052;-68
2022/12/28 22:45:18;;;;;;;10.65;6.65;;;19.60;36.30;;;;;;5058414;28;20131;-68
2022/12/28 22:47:46;;;;;;;9.30;6.25;;;19.60;36.40;;;;;;5076309;28;20170;-68
2022/12/28 22:50:16;;;;;;;8.90;6.45;;;19.60;36.40;;;;;;5075555;28;20139;-69
2022/12/28 22:52:43;;;;;;;9.00;6.68;;;19.60;36.40;;;;;;5076240;28;20040;-68
2022/12/28 22:55:10;;;;;;;9.20;6.22;;;19.60;36.40;;;;;;5060699;28;20053;-69
2022/12/28 22:57:37;;;;;;;8.32;6.22;;;19.60;36.40;;;;;;5055536;28;20045;-69
2022/12/28 23:00:08;;;;;;;9.25;6.80;;;19.60;36.40;;;;;;5055286;28;20053;-69
2022/12/28 23:02:35;;;;;;;8.70;6.05;;;19.60;36.40;;;;;;5055980;28;20048;-69
2022/12/28 23:05:03;;;;;;;8.55;6.10;;;19.60;36.40;;;;;;5055911;28;20049;-71
2022/12/28 23:07:30;;;;;;;10.43;6.32;;;19.60;36.50;;;;;;5055399;28;20049;-69
2022/12/28 23:09:57;;;;;;;9.18;6.50;;;19.60;36.50;;;;;;5055536;28;20466;-69
2022/12/28 23:12:24;;;;;;;9.00;6.60;;;19.60;36.50;;;;;;5054827;28;20063;-69
2022/12/28 23:17:38;;;;;;;9.55;6.57;;;19.60;36.50;;;;;;5073011;28;20506;-69
2022/12/28 23:28:27;;;;;;;9.88;6.38;;;19.60;36.50;;;;;;5075721;28;20055;-69
2022/12/28 23:30:55;;;;;;;8.82;6.75;;;19.50;36.50;;;;;;5075410;28;20056;-69
2022/12/28 23:33:23;;;;;;;8.40;5.93;;;19.50;36.50;;;;;;5075047;28;20040;-69
2022/12/28 23:35:50;;;;;;;8.85;6.45;;;19.50;36.50;;;;;;5074854;28;20083;-70
2022/12/28 23:38:17;;;;;;;8.75;6.30;;;19.50;36.50;;;;;;5075284;28;20135;-69
2022/12/28 23:40:44;;;;;;;9.02;6.25;;;19.50;36.60;;;;;;5075251;28;20048;-69